sensor_id;sensor_type;location;lat;lon;timestamp;P1;durP1;ratioP1;P2;durP2;ratioP2
46563;SDS011;32291;52.010;4.446;2023-02-13T00:00:13;31.65;;;24.73;;
46563;SDS011;32291;52.010;4.446;2023-02-13T00:01:17;29.67;;;23.95;;
46563;SDS011;32291;52.010;4.446;2023-02-13T00:02:19;30.65;;;25.40;;
46563;SDS011;32291;52.010;4.446;2023-02-13T00:03:20;33.38;;;26.10;;
46563;SDS011;32291;52.010;4.446;2023-02-13T00:04:22;35.58;;;25.05;;
46563;SDS011;32291;52.010;4.446;2023-02-13T00:05:23;33.17;;;25.90;;
46563;SDS011;32291;52.010;4.446;2023-02-13T00:06:25;31.10;;;25.55;;
46563;SDS011;32291;52.010;4.446;2023-02-13T00:07:26;33.33;;;25.75;;
46563;SDS011;32291;52.010;4.446;2023-02-13T00:08:27;33.22;;;24.70;;
46563;SDS011;32291;52.010;4.446;2023-02-13T00:09:29;34.35;;;26.30;;
46563;SDS011;32291;52.010;4.446;2023-02-13T00:10:30;30.65;;;25.02;;
46563;SDS011;32291;52.010;4.446;2023-02-13T00:11:31;32.65;;;24.75;;
46563;SDS011;32291;52.010;4.446;2023-02-13T00:12:33;28.83;;;23.92;;
46563;SDS011;32291;52.010;4.446;2023-02-13T00:13:35;31.10;;;25.35;;
46563;SDS011;32291;52.010;4.446;2023-02-13T00:14:37;32.58;;;25.75;;
46563;SDS011;32291;52.010;4.446;2023-02-13T00:15:39;32.00;;;24.42;;
46563;SDS011;32291;52.010;4.446;2023-02-13T00:16:40;32.00;;;24.80;;
46563;SDS011;32291;52.010;4.446;2023-02-13T00:17:41;31.77;;;25.15;;
46563;SDS011;32291;52.010;4.446;2023-02-13T00:18:42;31.13;;;25.45;;
46563;SDS011;32291;52.010;4.446;2023-02-13T00:19:44;31.90;;;25.33;;
46563;SDS011;32291;52.010;4.446;2023-02-13T00:20:45;31.30;;;25.00;;
46563;SDS011;32291;52.010;4.446;2023-02-13T00:21:57;31.98;;;23.85;;
46563;SDS011;32291;52.010;4.446;2023-02-13T00:22:59;29.75;;;23.95;;
46563;SDS011;32291;52.010;4.446;2023-02-13T00:24:00;29.60;;;24.27;;
46563;SDS011;32291;52.010;4.446;2023-02-13T00:25:03;30.92;;;24.13;;
46563;SDS011;32291;52.010;4.446;2023-02-13T00:26:06;28.95;;;23.40;;
46563;SDS011;32291;52.010;4.446;2023-02-13T00:27:09;32.83;;;25.15;;
46563;SDS011;32291;52.010;4.446;2023-02-13T00:28:11;31.55;;;25.70;;
46563;SDS011;32291;52.010;4.446;2023-02-13T00:29:12;34.55;;;24.63;;
46563;SDS011;32291;52.010;4.446;2023-02-13T00:30:13;29.98;;;24.17;;
46563;SDS011;32291;52.010;4.446;2023-02-13T00:31:16;30.02;;;23.45;;
46563;SDS011;32291;52.010;4.446;2023-02-13T00:32:19;33.35;;;25.52;;
46563;SDS011;32291;52.010;4.446;2023-02-13T00:33:21;32.55;;;25.33;;
46563;SDS011;32291;52.010;4.446;2023-02-13T00:34:22;31.45;;;24.50;;
46563;SDS011;32291;52.010;4.446;2023-02-13T00:35:23;33.45;;;25.20;;
46563;SDS011;32291;52.010;4.446;2023-02-13T00:36:24;32.42;;;25.52;;
46563;SDS011;32291;52.010;4.446;2023-02-13T00:37:26;31.67;;;25.10;;
46563;SDS011;32291;52.010;4.446;2023-02-13T00:38:28;31.33;;;24.92;;
46563;SDS011;32291;52.010;4.446;2023-02-13T00:39:33;31.85;;;24.60;;
46563;SDS011;32291;52.010;4.446;2023-02-13T00:40:34;31.90;;;24.92;;
46563;SDS011;32291;52.010;4.446;2023-02-13T00:41:35;31.92;;;24.10;;
46563;SDS011;32291;52.010;4.446;2023-02-13T00:42:37;30.17;;;25.17;;
46563;SDS011;32291;52.010;4.446;2023-02-13T00:43:39;30.00;;;25.15;;
46563;SDS011;32291;52.010;4.446;2023-02-13T00:44:40;31.92;;;25.15;;
46563;SDS011;32291;52.010;4.446;2023-02-13T00:45:42;30.63;;;24.55;;
46563;SDS011;32291;52.010;4.446;2023-02-13T00:46:43;33.17;;;24.90;;
46563;SDS011;32291;52.010;4.446;2023-02-13T00:47:44;31.17;;;24.67;;
46563;SDS011;32291;52.010;4.446;2023-02-13T00:48:45;28.50;;;23.13;;
46563;SDS011;32291;52.010;4.446;2023-02-13T00:49:49;33.47;;;25.70;;
46563;SDS011;32291;52.010;4.446;2023-02-13T00:50:50;32.53;;;25.25;;
46563;SDS011;32291;52.010;4.446;2023-02-13T00:51:54;31.85;;;25.20;;
46563;SDS011;32291;52.010;4.446;2023-02-13T00:52:56;30.60;;;24.13;;
46563;SDS011;32291;52.010;4.446;2023-02-13T00:53:57;32.85;;;24.67;;
46563;SDS011;32291;52.010;4.446;2023-02-13T00:54:58;29.92;;;24.15;;
46563;SDS011;32291;52.010;4.446;2023-02-13T00:55:59;32.63;;;25.70;;
46563;SDS011;32291;52.010;4.446;2023-02-13T00:57:01;33.05;;;25.75;;
46563;SDS011;32291;52.010;4.446;2023-02-13T00:58:03;33.95;;;26.92;;
46563;SDS011;32291;52.010;4.446;2023-02-13T00:59:05;33.45;;;25.58;;
46563;SDS011;32291;52.010;4.446;2023-02-13T01:00:06;30.20;;;24.88;;
46563;SDS011;32291;52.010;4.446;2023-02-13T01:01:07;33.50;;;25.48;;
46563;SDS011;32291;52.010;4.446;2023-02-13T01:02:09;31.00;;;23.58;;
46563;SDS011;32291;52.010;4.446;2023-02-13T01:03:10;34.28;;;25.70;;
46563;SDS011;32291;52.010;4.446;2023-02-13T01:04:11;31.88;;;25.23;;
46563;SDS011;32291;52.010;4.446;2023-02-13T01:05:13;30.60;;;24.52;;
46563;SDS011;32291;52.010;4.446;2023-02-13T01:06:15;31.52;;;24.70;;
46563;SDS011;32291;52.010;4.446;2023-02-13T01:07:16;33.60;;;26.35;;
46563;SDS011;32291;52.010;4.446;2023-02-13T01:08:18;32.05;;;24.92;;
46563;SDS011;32291;52.010;4.446;2023-02-13T01:09:20;31.60;;;25.35;;
46563;SDS011;32291;52.010;4.446;2023-02-13T01:10:21;34.00;;;25.20;;
46563;SDS011;32291;52.010;4.446;2023-02-13T01:11:23;34.13;;;25.23;;
46563;SDS011;32291;52.010;4.446;2023-02-13T01:12:24;34.38;;;25.77;;
46563;SDS011;32291;52.010;4.446;2023-02-13T01:13:26;32.70;;;24.98;;
46563;SDS011;32291;52.010;4.446;2023-02-13T01:14:27;32.13;;;25.50;;
46563;SDS011;32291;52.010;4.446;2023-02-13T01:15:29;29.25;;;25.63;;
46563;SDS011;32291;52.010;4.446;2023-02-13T01:16:32;32.67;;;25.17;;
46563;SDS011;32291;52.010;4.446;2023-02-13T01:17:33;30.83;;;23.10;;
46563;SDS011;32291;52.010;4.446;2023-02-13T01:18:34;29.88;;;24.88;;
46563;SDS011;32291;52.010;4.446;2023-02-13T01:19:36;30.65;;;24.30;;
46563;SDS011;32291;52.010;4.446;2023-02-13T01:20:40;34.30;;;25.42;;
46563;SDS011;32291;52.010;4.446;2023-02-13T01:21:43;34.70;;;26.38;;
46563;SDS011;32291;52.010;4.446;2023-02-13T01:22:44;33.70;;;26.27;;
46563;SDS011;32291;52.010;4.446;2023-02-13T01:23:46;30.65;;;24.60;;
46563;SDS011;32291;52.010;4.446;2023-02-13T01:24:48;33.90;;;26.48;;
46563;SDS011;32291;52.010;4.446;2023-02-13T01:25:49;32.30;;;25.42;;
46563;SDS011;32291;52.010;4.446;2023-02-13T01:26:51;31.95;;;25.30;;
46563;SDS011;32291;52.010;4.446;2023-02-13T01:27:52;31.27;;;24.27;;
46563;SDS011;32291;52.010;4.446;2023-02-13T01:28:53;32.83;;;25.92;;
46563;SDS011;32291;52.010;4.446;2023-02-13T01:29:54;30.67;;;24.05;;
46563;SDS011;32291;52.010;4.446;2023-02-13T01:30:56;31.95;;;25.13;;
46563;SDS011;32291;52.010;4.446;2023-02-13T01:31:58;30.67;;;24.75;;
46563;SDS011;32291;52.010;4.446;2023-02-13T01:33:02;32.83;;;26.45;;
46563;SDS011;32291;52.010;4.446;2023-02-13T01:34:03;31.75;;;24.85;;
46563;SDS011;32291;52.010;4.446;2023-02-13T01:35:06;31.70;;;25.25;;
46563;SDS011;32291;52.010;4.446;2023-02-13T01:36:08;33.83;;;26.33;;
46563;SDS011;32291;52.010;4.446;2023-02-13T01:37:11;31.92;;;25.63;;
46563;SDS011;32291;52.010;4.446;2023-02-13T01:38:13;33.30;;;25.50;;
46563;SDS011;32291;52.010;4.446;2023-02-13T01:39:14;32.15;;;25.70;;
46563;SDS011;32291;52.010;4.446;2023-02-13T01:40:15;32.45;;;25.45;;
46563;SDS011;32291;52.010;4.446;2023-02-13T01:41:16;36.15;;;25.98;;
46563;SDS011;32291;52.010;4.446;2023-02-13T01:42:23;31.52;;;25.33;;
46563;SDS011;32291;52.010;4.446;2023-02-13T01:43:43;34.15;;;25.25;;
46563;SDS011;32291;52.010;4.446;2023-02-13T01:45:58;32.17;;;26.25;;
46563;SDS011;32291;52.010;4.446;2023-02-13T01:47:01;33.92;;;25.67;;
46563;SDS011;32291;52.010;4.446;2023-02-13T01:48:03;30.60;;;25.05;;
46563;SDS011;32291;52.010;4.446;2023-02-13T01:49:16;30.58;;;24.08;;
46563;SDS011;32291;52.010;4.446;2023-02-13T01:51:34;32.95;;;25.70;;
46563;SDS011;32291;52.010;4.446;2023-02-13T01:52:37;33.25;;;26.58;;
46563;SDS011;32291;52.010;4.446;2023-02-13T01:53:45;32.53;;;26.13;;
46563;SDS011;32291;52.010;4.446;2023-02-13T01:54:50;33.53;;;26.42;;
46563;SDS011;32291;52.010;4.446;2023-02-13T01:55:54;31.92;;;26.10;;
46563;SDS011;32291;52.010;4.446;2023-02-13T01:57:05;31.33;;;24.98;;
46563;SDS011;32291;52.010;4.446;2023-02-13T01:58:18;33.35;;;24.80;;
46563;SDS011;32291;52.010;4.446;2023-02-13T01:59:25;30.15;;;24.70;;
46563;SDS011;32291;52.010;4.446;2023-02-13T02:00:29;33.33;;;25.05;;
46563;SDS011;32291;52.010;4.446;2023-02-13T02:01:31;31.48;;;24.85;;
46563;SDS011;32291;52.010;4.446;2023-02-13T02:02:33;31.85;;;23.63;;
46563;SDS011;32291;52.010;4.446;2023-02-13T02:04:43;33.25;;;25.45;;
46563;SDS011;32291;52.010;4.446;2023-02-13T02:05:46;32.67;;;26.27;;
46563;SDS011;32291;52.010;4.446;2023-02-13T02:06:55;30.75;;;24.83;;
46563;SDS011;32291;52.010;4.446;2023-02-13T02:08:03;31.30;;;25.00;;
46563;SDS011;32291;52.010;4.446;2023-02-13T02:09:10;33.53;;;25.58;;
46563;SDS011;32291;52.010;4.446;2023-02-13T02:10:16;35.55;;;26.77;;
46563;SDS011;32291;52.010;4.446;2023-02-13T02:12:59;33.60;;;25.17;;
46563;SDS011;32291;52.010;4.446;2023-02-13T02:14:20;31.25;;;23.95;;
46563;SDS011;32291;52.010;4.446;2023-02-13T02:15:21;33.97;;;25.58;;
46563;SDS011;32291;52.010;4.446;2023-02-13T02:16:23;30.35;;;24.95;;
46563;SDS011;32291;52.010;4.446;2023-02-13T02:17:25;35.05;;;26.20;;
46563;SDS011;32291;52.010;4.446;2023-02-13T02:18:27;33.53;;;25.48;;
46563;SDS011;32291;52.010;4.446;2023-02-13T02:30:25;30.92;;;25.10;;
46563;SDS011;32291;52.010;4.446;2023-02-13T02:33:12;33.78;;;24.77;;
46563;SDS011;32291;52.010;4.446;2023-02-13T02:34:21;39.30;;;26.35;;
46563;SDS011;32291;52.010;4.446;2023-02-13T02:35:57;34.30;;;25.58;;
46563;SDS011;32291;52.010;4.446;2023-02-13T02:37:16;31.45;;;25.33;;
46563;SDS011;32291;52.010;4.446;2023-02-13T02:43:19;33.15;;;24.90;;
46563;SDS011;32291;52.010;4.446;2023-02-13T02:45:47;34.47;;;25.30;;
46563;SDS011;32291;52.010;4.446;2023-02-13T02:47:12;32.72;;;24.92;;
46563;SDS011;32291;52.010;4.446;2023-02-13T02:49:14;32.95;;;24.73;;
46563;SDS011;32291;52.010;4.446;2023-02-13T02:50:47;34.30;;;24.27;;
46563;SDS011;32291;52.010;4.446;2023-02-13T02:53:43;35.85;;;25.80;;
46563;SDS011;32291;52.010;4.446;2023-02-13T02:54:46;31.60;;;25.33;;
46563;SDS011;32291;52.010;4.446;2023-02-13T02:57:22;31.63;;;24.42;;
46563;SDS011;32291;52.010;4.446;2023-02-13T02:58:51;31.17;;;23.92;;
46563;SDS011;32291;52.010;4.446;2023-02-13T03:00:22;34.88;;;25.35;;
46563;SDS011;32291;52.010;4.446;2023-02-13T03:01:44;32.20;;;24.80;;
46563;SDS011;32291;52.010;4.446;2023-02-13T03:03:06;37.33;;;26.40;;
46563;SDS011;32291;52.010;4.446;2023-02-13T03:04:39;33.95;;;24.70;;
46563;SDS011;32291;52.010;4.446;2023-02-13T03:06:02;31.27;;;24.45;;
46563;SDS011;32291;52.010;4.446;2023-02-13T03:07:13;30.60;;;24.27;;
46563;SDS011;32291;52.010;4.446;2023-02-13T03:08:16;33.30;;;25.10;;
46563;SDS011;32291;52.010;4.446;2023-02-13T03:09:56;35.47;;;25.92;;
46563;SDS011;32291;52.010;4.446;2023-02-13T03:11:20;35.42;;;26.55;;
46563;SDS011;32291;52.010;4.446;2023-02-13T03:12:48;34.88;;;24.90;;
46563;SDS011;32291;52.010;4.446;2023-02-13T03:14:19;30.48;;;23.15;;
46563;SDS011;32291;52.010;4.446;2023-02-13T03:15:21;32.60;;;25.23;;
46563;SDS011;32291;52.010;4.446;2023-02-13T03:16:25;33.65;;;25.52;;
46563;SDS011;32291;52.010;4.446;2023-02-13T03:17:45;33.92;;;25.17;;
46563;SDS011;32291;52.010;4.446;2023-02-13T03:19:11;35.85;;;26.08;;
46563;SDS011;32291;52.010;4.446;2023-02-13T03:22:05;30.83;;;23.48;;
46563;SDS011;32291;52.010;4.446;2023-02-13T03:24:52;33.75;;;24.17;;
46563;SDS011;32291;52.010;4.446;2023-02-13T03:26:14;32.05;;;24.13;;
46563;SDS011;32291;52.010;4.446;2023-02-13T03:29:45;31.85;;;24.23;;
46563;SDS011;32291;52.010;4.446;2023-02-13T03:32:25;32.95;;;25.83;;
46563;SDS011;32291;52.010;4.446;2023-02-13T03:34:57;28.40;;;22.58;;
46563;SDS011;32291;52.010;4.446;2023-02-13T03:38:04;32.63;;;24.27;;
46563;SDS011;32291;52.010;4.446;2023-02-13T03:39:26;32.67;;;24.35;;
46563;SDS011;32291;52.010;4.446;2023-02-13T03:42:39;34.58;;;25.90;;
46563;SDS011;32291;52.010;4.446;2023-02-13T03:45:13;31.48;;;25.13;;
46563;SDS011;32291;52.010;4.446;2023-02-13T03:46:46;33.22;;;24.75;;
46563;SDS011;32291;52.010;4.446;2023-02-13T03:47:50;35.67;;;26.80;;
46563;SDS011;32291;52.010;4.446;2023-02-13T03:48:54;35.58;;;26.52;;
46563;SDS011;32291;52.010;4.446;2023-02-13T03:50:16;34.38;;;25.63;;
46563;SDS011;32291;52.010;4.446;2023-02-13T03:51:19;32.10;;;24.73;;
46563;SDS011;32291;52.010;4.446;2023-02-13T03:52:26;33.05;;;25.00;;
46563;SDS011;32291;52.010;4.446;2023-02-13T03:53:32;31.83;;;25.58;;
46563;SDS011;32291;52.010;4.446;2023-02-13T03:54:38;35.50;;;25.00;;
46563;SDS011;32291;52.010;4.446;2023-02-13T03:56:00;35.42;;;26.42;;
46563;SDS011;32291;52.010;4.446;2023-02-13T03:57:20;35.05;;;25.48;;
46563;SDS011;32291;52.010;4.446;2023-02-13T03:58:45;34.35;;;25.65;;
46563;SDS011;32291;52.010;4.446;2023-02-13T04:00:10;35.50;;;27.00;;
46563;SDS011;32291;52.010;4.446;2023-02-13T04:01:13;33.45;;;26.13;;
46563;SDS011;32291;52.010;4.446;2023-02-13T04:02:18;29.73;;;24.30;;
46563;SDS011;32291;52.010;4.446;2023-02-13T04:03:30;33.33;;;25.52;;
46563;SDS011;32291;52.010;4.446;2023-02-13T04:04:39;35.13;;;26.50;;
46563;SDS011;32291;52.010;4.446;2023-02-13T04:05:50;33.95;;;25.33;;
46563;SDS011;32291;52.010;4.446;2023-02-13T04:07:04;32.28;;;25.38;;
46563;SDS011;32291;52.010;4.446;2023-02-13T04:08:09;34.92;;;25.75;;
46563;SDS011;32291;52.010;4.446;2023-02-13T04:09:11;36.33;;;26.92;;
46563;SDS011;32291;52.010;4.446;2023-02-13T04:10:14;32.63;;;25.92;;
46563;SDS011;32291;52.010;4.446;2023-02-13T04:11:20;33.47;;;25.33;;
46563;SDS011;32291;52.010;4.446;2023-02-13T04:12:37;34.47;;;25.63;;
46563;SDS011;32291;52.010;4.446;2023-02-13T04:14:20;32.38;;;24.55;;
46563;SDS011;32291;52.010;4.446;2023-02-13T04:15:30;31.73;;;25.15;;
46563;SDS011;32291;52.010;4.446;2023-02-13T04:16:39;33.67;;;25.52;;
46563;SDS011;32291;52.010;4.446;2023-02-13T04:17:44;34.00;;;25.63;;
46563;SDS011;32291;52.010;4.446;2023-02-13T04:18:53;35.88;;;27.42;;
46563;SDS011;32291;52.010;4.446;2023-02-13T04:19:56;33.33;;;25.70;;
46563;SDS011;32291;52.010;4.446;2023-02-13T04:21:04;34.17;;;26.42;;
46563;SDS011;32291;52.010;4.446;2023-02-13T04:22:06;33.80;;;25.15;;
46563;SDS011;32291;52.010;4.446;2023-02-13T04:23:08;33.72;;;25.13;;
46563;SDS011;32291;52.010;4.446;2023-02-13T04:24:11;35.05;;;26.77;;
46563;SDS011;32291;52.010;4.446;2023-02-13T04:25:14;33.55;;;24.95;;
46563;SDS011;32291;52.010;4.446;2023-02-13T04:26:18;37.55;;;26.52;;
46563;SDS011;32291;52.010;4.446;2023-02-13T04:27:21;36.00;;;25.52;;
46563;SDS011;32291;52.010;4.446;2023-02-13T04:28:27;32.83;;;25.10;;
46563;SDS011;32291;52.010;4.446;2023-02-13T04:29:28;32.50;;;25.08;;
46563;SDS011;32291;52.010;4.446;2023-02-13T04:30:29;33.85;;;24.75;;
46563;SDS011;32291;52.010;4.446;2023-02-13T04:31:31;36.58;;;26.85;;
46563;SDS011;32291;52.010;4.446;2023-02-13T04:32:33;34.85;;;25.63;;
46563;SDS011;32291;52.010;4.446;2023-02-13T04:33:34;37.72;;;26.92;;
46563;SDS011;32291;52.010;4.446;2023-02-13T04:34:36;32.97;;;25.92;;
46563;SDS011;32291;52.010;4.446;2023-02-13T04:35:37;33.55;;;25.77;;
46563;SDS011;32291;52.010;4.446;2023-02-13T04:36:39;35.10;;;26.30;;
46563;SDS011;32291;52.010;4.446;2023-02-13T04:37:40;33.58;;;25.10;;
46563;SDS011;32291;52.010;4.446;2023-02-13T04:38:42;34.35;;;26.20;;
46563;SDS011;32291;52.010;4.446;2023-02-13T04:39:44;36.45;;;25.38;;
46563;SDS011;32291;52.010;4.446;2023-02-13T04:40:46;34.88;;;25.58;;
46563;SDS011;32291;52.010;4.446;2023-02-13T04:41:47;32.55;;;25.38;;
46563;SDS011;32291;52.010;4.446;2023-02-13T04:42:48;34.67;;;26.17;;
46563;SDS011;32291;52.010;4.446;2023-02-13T04:43:50;31.95;;;24.90;;
46563;SDS011;32291;52.010;4.446;2023-02-13T04:44:52;34.03;;;25.13;;
46563;SDS011;32291;52.010;4.446;2023-02-13T04:45:53;30.73;;;24.98;;
46563;SDS011;32291;52.010;4.446;2023-02-13T04:46:55;32.45;;;24.88;;
46563;SDS011;32291;52.010;4.446;2023-02-13T04:47:57;33.55;;;26.02;;
46563;SDS011;32291;52.010;4.446;2023-02-13T04:48:58;36.85;;;26.58;;
46563;SDS011;32291;52.010;4.446;2023-02-13T04:49:59;37.13;;;26.13;;
46563;SDS011;32291;52.010;4.446;2023-02-13T04:51:01;32.90;;;24.60;;
46563;SDS011;32291;52.010;4.446;2023-02-13T04:52:02;34.40;;;25.67;;
46563;SDS011;32291;52.010;4.446;2023-02-13T04:53:03;33.42;;;25.95;;
46563;SDS011;32291;52.010;4.446;2023-02-13T04:54:05;34.58;;;24.95;;
46563;SDS011;32291;52.010;4.446;2023-02-13T04:55:07;33.08;;;25.33;;
46563;SDS011;32291;52.010;4.446;2023-02-13T04:56:08;34.95;;;25.67;;
46563;SDS011;32291;52.010;4.446;2023-02-13T04:57:09;33.08;;;25.15;;
46563;SDS011;32291;52.010;4.446;2023-02-13T04:58:11;33.22;;;25.63;;
46563;SDS011;32291;52.010;4.446;2023-02-13T04:59:13;31.48;;;25.02;;
46563;SDS011;32291;52.010;4.446;2023-02-13T05:00:14;33.17;;;24.25;;
46563;SDS011;32291;52.010;4.446;2023-02-13T05:01:16;31.67;;;24.30;;
46563;SDS011;32291;52.010;4.446;2023-02-13T05:02:18;28.88;;;22.85;;
46563;SDS011;32291;52.010;4.446;2023-02-13T05:03:19;29.83;;;23.42;;
46563;SDS011;32291;52.010;4.446;2023-02-13T05:04:21;35.67;;;25.42;;
46563;SDS011;32291;52.010;4.446;2023-02-13T05:05:22;32.75;;;24.77;;
46563;SDS011;32291;52.010;4.446;2023-02-13T05:06:24;30.58;;;23.95;;
46563;SDS011;32291;52.010;4.446;2023-02-13T05:07:25;29.17;;;22.75;;
46563;SDS011;32291;52.010;4.446;2023-02-13T05:08:27;33.72;;;25.52;;
46563;SDS011;32291;52.010;4.446;2023-02-13T05:09:28;28.65;;;23.23;;
46563;SDS011;32291;52.010;4.446;2023-02-13T05:10:30;32.45;;;23.95;;
46563;SDS011;32291;52.010;4.446;2023-02-13T05:11:31;29.38;;;23.88;;
46563;SDS011;32291;52.010;4.446;2023-02-13T05:12:33;33.90;;;23.67;;
46563;SDS011;32291;52.010;4.446;2023-02-13T05:13:34;34.03;;;24.15;;
46563;SDS011;32291;52.010;4.446;2023-02-13T05:14:35;31.80;;;23.33;;
46563;SDS011;32291;52.010;4.446;2023-02-13T05:15:37;33.20;;;23.05;;
46563;SDS011;32291;52.010;4.446;2023-02-13T05:16:38;31.75;;;23.67;;
46563;SDS011;32291;52.010;4.446;2023-02-13T05:17:42;30.17;;;23.35;;
46563;SDS011;32291;52.010;4.446;2023-02-13T05:18:44;33.00;;;24.60;;
46563;SDS011;32291;52.010;4.446;2023-02-13T05:19:46;31.35;;;23.35;;
46563;SDS011;32291;52.010;4.446;2023-02-13T05:20:47;30.15;;;24.25;;
46563;SDS011;32291;52.010;4.446;2023-02-13T05:22:08;31.98;;;23.00;;
46563;SDS011;32291;52.010;4.446;2023-02-13T05:23:29;30.67;;;24.15;;
46563;SDS011;32291;52.010;4.446;2023-02-13T05:24:30;31.65;;;23.92;;
46563;SDS011;32291;52.010;4.446;2023-02-13T05:25:31;31.70;;;24.13;;
46563;SDS011;32291;52.010;4.446;2023-02-13T05:26:34;34.20;;;25.48;;
46563;SDS011;32291;52.010;4.446;2023-02-13T05:27:35;31.80;;;23.80;;
46563;SDS011;32291;52.010;4.446;2023-02-13T05:28:36;28.83;;;23.02;;
46563;SDS011;32291;52.010;4.446;2023-02-13T05:29:56;31.02;;;23.58;;
46563;SDS011;32291;52.010;4.446;2023-02-13T05:30:58;31.70;;;22.98;;
46563;SDS011;32291;52.010;4.446;2023-02-13T05:31:59;29.23;;;21.90;;
46563;SDS011;32291;52.010;4.446;2023-02-13T05:33:01;31.90;;;23.85;;
46563;SDS011;32291;52.010;4.446;2023-02-13T05:34:02;28.40;;;22.23;;
46563;SDS011;32291;52.010;4.446;2023-02-13T05:35:03;29.58;;;22.95;;
46563;SDS011;32291;52.010;4.446;2023-02-13T05:36:05;28.70;;;22.48;;
46563;SDS011;32291;52.010;4.446;2023-02-13T05:37:07;28.83;;;22.27;;
46563;SDS011;32291;52.010;4.446;2023-02-13T05:38:08;29.48;;;23.50;;
46563;SDS011;32291;52.010;4.446;2023-02-13T05:39:09;29.70;;;22.42;;
46563;SDS011;32291;52.010;4.446;2023-02-13T05:40:11;29.20;;;22.77;;
46563;SDS011;32291;52.010;4.446;2023-02-13T05:41:13;31.63;;;23.35;;
46563;SDS011;32291;52.010;4.446;2023-02-13T05:42:15;30.83;;;22.85;;
46563;SDS011;32291;52.010;4.446;2023-02-13T05:43:16;31.67;;;23.10;;
46563;SDS011;32291;52.010;4.446;2023-02-13T05:44:19;29.27;;;21.25;;
46563;SDS011;32291;52.010;4.446;2023-02-13T05:45:20;33.25;;;23.58;;
46563;SDS011;32291;52.010;4.446;2023-02-13T05:46:21;28.40;;;22.48;;
46563;SDS011;32291;52.010;4.446;2023-02-13T05:47:23;33.03;;;24.38;;
46563;SDS011;32291;52.010;4.446;2023-02-13T05:48:24;29.80;;;23.42;;
46563;SDS011;32291;52.010;4.446;2023-02-13T05:49:25;32.75;;;23.65;;
46563;SDS011;32291;52.010;4.446;2023-02-13T05:50:27;29.85;;;21.83;;
46563;SDS011;32291;52.010;4.446;2023-02-13T05:51:28;31.02;;;22.88;;
46563;SDS011;32291;52.010;4.446;2023-02-13T05:52:30;30.30;;;23.02;;
46563;SDS011;32291;52.010;4.446;2023-02-13T05:53:31;31.40;;;24.08;;
46563;SDS011;32291;52.010;4.446;2023-02-13T05:54:34;32.45;;;23.55;;
46563;SDS011;32291;52.010;4.446;2023-02-13T05:55:38;32.00;;;22.90;;
46563;SDS011;32291;52.010;4.446;2023-02-13T05:56:39;34.10;;;24.30;;
46563;SDS011;32291;52.010;4.446;2023-02-13T05:57:41;31.98;;;22.60;;
46563;SDS011;32291;52.010;4.446;2023-02-13T05:58:42;29.55;;;23.02;;
46563;SDS011;32291;52.010;4.446;2023-02-13T05:59:44;30.35;;;23.25;;
46563;SDS011;32291;52.010;4.446;2023-02-13T06:00:46;30.75;;;23.20;;
46563;SDS011;32291;52.010;4.446;2023-02-13T06:01:47;31.83;;;23.33;;
46563;SDS011;32291;52.010;4.446;2023-02-13T06:02:49;29.58;;;22.48;;
46563;SDS011;32291;52.010;4.446;2023-02-13T06:03:50;30.42;;;23.15;;
46563;SDS011;32291;52.010;4.446;2023-02-13T06:04:51;28.90;;;22.50;;
46563;SDS011;32291;52.010;4.446;2023-02-13T06:05:53;31.80;;;23.30;;
46563;SDS011;32291;52.010;4.446;2023-02-13T06:06:55;27.85;;;21.70;;
46563;SDS011;32291;52.010;4.446;2023-02-13T06:07:57;30.77;;;22.80;;
46563;SDS011;32291;52.010;4.446;2023-02-13T06:08:58;32.45;;;23.08;;
46563;SDS011;32291;52.010;4.446;2023-02-13T06:10:00;31.85;;;23.63;;
46563;SDS011;32291;52.010;4.446;2023-02-13T06:11:03;29.83;;;22.00;;
46563;SDS011;32291;52.010;4.446;2023-02-13T06:12:04;34.25;;;23.80;;
46563;SDS011;32291;52.010;4.446;2023-02-13T06:13:06;33.00;;;24.10;;
46563;SDS011;32291;52.010;4.446;2023-02-13T06:14:07;34.15;;;23.67;;
46563;SDS011;32291;52.010;4.446;2023-02-13T06:15:08;31.38;;;23.48;;
46563;SDS011;32291;52.010;4.446;2023-02-13T06:16:10;33.25;;;23.58;;
46563;SDS011;32291;52.010;4.446;2023-02-13T06:17:11;28.45;;;21.00;;
46563;SDS011;32291;52.010;4.446;2023-02-13T06:18:13;33.15;;;23.58;;
46563;SDS011;32291;52.010;4.446;2023-02-13T06:19:14;35.22;;;25.10;;
46563;SDS011;32291;52.010;4.446;2023-02-13T06:20:16;31.35;;;23.42;;
46563;SDS011;32291;52.010;4.446;2023-02-13T06:21:17;33.15;;;24.40;;
46563;SDS011;32291;52.010;4.446;2023-02-13T06:22:18;29.17;;;22.33;;
46563;SDS011;32291;52.010;4.446;2023-02-13T06:23:19;30.90;;;23.02;;
46563;SDS011;32291;52.010;4.446;2023-02-13T06:24:21;29.67;;;22.67;;
46563;SDS011;32291;52.010;4.446;2023-02-13T06:25:22;30.73;;;22.92;;
46563;SDS011;32291;52.010;4.446;2023-02-13T06:26:24;32.03;;;23.65;;
46563;SDS011;32291;52.010;4.446;2023-02-13T06:27:25;32.90;;;24.58;;
46563;SDS011;32291;52.010;4.446;2023-02-13T06:28:26;31.60;;;23.45;;
46563;SDS011;32291;52.010;4.446;2023-02-13T06:29:27;32.33;;;23.98;;
46563;SDS011;32291;52.010;4.446;2023-02-13T06:30:31;30.52;;;23.30;;
46563;SDS011;32291;52.010;4.446;2023-02-13T06:31:33;32.35;;;23.20;;
46563;SDS011;32291;52.010;4.446;2023-02-13T06:32:35;31.90;;;22.90;;
46563;SDS011;32291;52.010;4.446;2023-02-13T06:33:36;32.45;;;23.33;;
46563;SDS011;32291;52.010;4.446;2023-02-13T06:34:37;33.40;;;24.08;;
46563;SDS011;32291;52.010;4.446;2023-02-13T06:35:39;34.38;;;23.85;;
46563;SDS011;32291;52.010;4.446;2023-02-13T06:36:40;32.60;;;24.45;;
46563;SDS011;32291;52.010;4.446;2023-02-13T06:37:42;31.83;;;23.30;;
46563;SDS011;32291;52.010;4.446;2023-02-13T06:38:44;32.00;;;24.13;;
46563;SDS011;32291;52.010;4.446;2023-02-13T06:39:45;31.73;;;24.08;;
46563;SDS011;32291;52.010;4.446;2023-02-13T06:40:46;30.20;;;23.52;;
46563;SDS011;32291;52.010;4.446;2023-02-13T06:41:48;34.83;;;24.73;;
46563;SDS011;32291;52.010;4.446;2023-02-13T06:42:50;27.80;;;22.30;;
46563;SDS011;32291;52.010;4.446;2023-02-13T06:43:51;29.85;;;22.98;;
46563;SDS011;32291;52.010;4.446;2023-02-13T06:44:53;30.73;;;22.80;;
46563;SDS011;32291;52.010;4.446;2023-02-13T06:45:54;30.60;;;23.00;;
46563;SDS011;32291;52.010;4.446;2023-02-13T06:46:55;32.88;;;23.95;;
46563;SDS011;32291;52.010;4.446;2023-02-13T06:47:57;32.60;;;23.98;;
46563;SDS011;32291;52.010;4.446;2023-02-13T06:48:58;33.50;;;24.33;;
46563;SDS011;32291;52.010;4.446;2023-02-13T06:49:59;31.63;;;23.52;;
46563;SDS011;32291;52.010;4.446;2023-02-13T06:51:00;32.50;;;23.75;;
46563;SDS011;32291;52.010;4.446;2023-02-13T06:52:02;33.88;;;24.48;;
46563;SDS011;32291;52.010;4.446;2023-02-13T06:53:03;33.33;;;23.77;;
46563;SDS011;32291;52.010;4.446;2023-02-13T06:54:04;33.65;;;24.52;;
46563;SDS011;32291;52.010;4.446;2023-02-13T06:55:06;34.40;;;24.90;;
46563;SDS011;32291;52.010;4.446;2023-02-13T06:56:08;32.08;;;23.17;;
46563;SDS011;32291;52.010;4.446;2023-02-13T06:57:11;34.60;;;23.75;;
46563;SDS011;32291;52.010;4.446;2023-02-13T06:58:12;29.88;;;22.90;;
46563;SDS011;32291;52.010;4.446;2023-02-13T06:59:14;34.58;;;24.17;;
46563;SDS011;32291;52.010;4.446;2023-02-13T07:00:16;30.95;;;22.67;;